sensor_id;sensor_type;location;lat;lon;timestamp;pressure;altitude;pressure_sealevel;temperature;humidity
68107;BME280;54892;47.488;19.026;2022-08-19T00:02:23;99475.13;;;26.98;47.03
68107;BME280;54892;47.488;19.026;2022-08-19T00:05:26;99463.88;;;26.93;46.92
68107;BME280;54892;47.488;19.026;2022-08-19T00:08:30;99467.34;;;26.89;46.89
68107;BME280;54892;47.488;19.026;2022-08-19T00:11:34;99475.06;;;26.87;47.12
68107;BME280;54892;47.488;19.026;2022-08-19T00:14:38;99473.44;;;26.79;47.26
68107;BME280;54892;47.488;19.026;2022-08-19T00:17:43;99469.59;;;26.80;46.93
68107;BME280;54892;47.488;19.026;2022-08-19T00:20:46;99462.56;;;26.72;47.24
68107;BME280;54892;47.488;19.026;2022-08-19T00:23:51;99469.94;;;26.79;46.84
68107;BME280;54892;47.488;19.026;2022-08-19T00:26:54;99460.25;;;26.74;47.47
68107;BME280;54892;47.488;19.026;2022-08-19T00:29:57;99477.25;;;26.67;47.56
68107;BME280;54892;47.488;19.026;2022-08-19T00:33:01;99477.63;;;26.69;47.64
68107;BME280;54892;47.488;19.026;2022-08-19T00:36:05;99477.25;;;26.71;47.58
68107;BME280;54892;47.488;19.026;2022-08-19T00:39:10;99476.50;;;26.70;47.31
68107;BME280;54892;47.488;19.026;2022-08-19T00:42:12;99475.69;;;26.70;47.58
68107;BME280;54892;47.488;19.026;2022-08-19T00:45:18;99480.41;;;26.80;47.53
68107;BME280;54892;47.488;19.026;2022-08-19T00:48:22;99469.06;;;26.64;47.70
68107;BME280;54892;47.488;19.026;2022-08-19T00:51:26;99468.37;;;26.74;47.71
68107;BME280;54892;47.488;19.026;2022-08-19T00:54:31;99470.94;;;26.52;48.34
68107;BME280;54892;47.488;19.026;2022-08-19T00:57:35;99459.72;;;26.50;48.21
68107;BME280;54892;47.488;19.026;2022-08-19T01:00:39;99459.75;;;26.54;47.47
68107;BME280;54892;47.488;19.026;2022-08-19T01:03:42;99457.88;;;26.62;47.44
68107;BME280;54892;47.488;19.026;2022-08-19T01:06:45;99461.66;;;26.53;47.79
68107;BME280;54892;47.488;19.026;2022-08-19T01:09:50;99458.16;;;26.49;48.09
68107;BME280;54892;47.488;19.026;2022-08-19T01:12:53;99448.06;;;26.42;48.58
68107;BME280;54892;47.488;19.026;2022-08-19T01:15:58;99464.03;;;26.55;48.04
68107;BME280;54892;47.488;19.026;2022-08-19T01:19:03;99459.63;;;26.36;48.62
68107;BME280;54892;47.488;19.026;2022-08-19T01:22:08;99454.72;;;26.52;47.05
68107;BME280;54892;47.488;19.026;2022-08-19T01:25:16;99443.94;;;26.59;46.37
68107;BME280;54892;47.488;19.026;2022-08-19T01:28:20;99435.75;;;26.52;47.42
68107;BME280;54892;47.488;19.026;2022-08-19T01:31:25;99449.34;;;26.59;47.46
68107;BME280;54892;47.488;19.026;2022-08-19T01:34:28;99456.31;;;26.60;47.55
68107;BME280;54892;47.488;19.026;2022-08-19T01:37:41;99445.84;;;26.55;47.69
68107;BME280;54892;47.488;19.026;2022-08-19T01:40:46;99438.41;;;26.41;47.95
68107;BME280;54892;47.488;19.026;2022-08-19T01:43:49;99445.41;;;26.46;48.05
68107;BME280;54892;47.488;19.026;2022-08-19T01:46:53;99438.38;;;26.34;48.64
68107;BME280;54892;47.488;19.026;2022-08-19T01:49:57;99433.69;;;26.31;49.22
68107;BME280;54892;47.488;19.026;2022-08-19T01:53:01;99444.66;;;26.53;48.12
68107;BME280;54892;47.488;19.026;2022-08-19T01:56:07;99422.13;;;26.31;48.73
68107;BME280;54892;47.488;19.026;2022-08-19T01:59:11;99408.94;;;26.29;48.74
68107;BME280;54892;47.488;19.026;2022-08-19T02:02:14;99415.19;;;26.40;48.07
68107;BME280;54892;47.488;19.026;2022-08-19T02:05:18;99419.75;;;26.29;48.24
68107;BME280;54892;47.488;19.026;2022-08-19T02:08:22;99409.34;;;26.27;48.45
68107;BME280;54892;47.488;19.026;2022-08-19T02:11:29;99410.12;;;26.32;48.59
68107;BME280;54892;47.488;19.026;2022-08-19T02:14:33;99411.41;;;26.52;47.87
68107;BME280;54892;47.488;19.026;2022-08-19T02:17:36;99398.87;;;26.26;48.40
68107;BME280;54892;47.488;19.026;2022-08-19T02:20:39;99404.66;;;26.24;48.54
68107;BME280;54892;47.488;19.026;2022-08-19T02:23:43;99408.53;;;26.23;48.86
68107;BME280;54892;47.488;19.026;2022-08-19T02:26:48;99407.78;;;26.26;48.70
68107;BME280;54892;47.488;19.026;2022-08-19T02:29:51;99406.94;;;26.19;49.04
68107;BME280;54892;47.488;19.026;2022-08-19T02:32:55;99398.03;;;26.18;49.04
68107;BME280;54892;47.488;19.026;2022-08-19T02:35:58;99401.53;;;26.15;48.93
68107;BME280;54892;47.488;19.026;2022-08-19T02:39:01;99407.72;;;26.19;48.76
68107;BME280;54892;47.488;19.026;2022-08-19T02:42:06;99406.94;;;26.15;48.68
68107;BME280;54892;47.488;19.026;2022-08-19T02:45:09;99416.63;;;26.23;48.70
68107;BME280;54892;47.488;19.026;2022-08-19T02:48:12;99404.91;;;26.08;48.96
68107;BME280;54892;47.488;19.026;2022-08-19T02:51:16;99419.59;;;26.07;48.87
68107;BME280;54892;47.488;19.026;2022-08-19T02:54:22;99421.91;;;26.05;48.82
68107;BME280;54892;47.488;19.026;2022-08-19T02:57:26;99417.94;;;25.95;49.00
68107;BME280;54892;47.488;19.026;2022-08-19T03:00:30;99428.06;;;26.02;48.93
68107;BME280;54892;47.488;19.026;2022-08-19T03:03:33;99434.59;;;25.97;49.14
68107;BME280;54892;47.488;19.026;2022-08-19T03:06:37;99438.47;;;26.04;49.09
68107;BME280;54892;47.488;19.026;2022-08-19T03:09:39;99430.22;;;25.86;49.42
68107;BME280;54892;47.488;19.026;2022-08-19T03:12:45;99427.09;;;25.80;49.20
68107;BME280;54892;47.488;19.026;2022-08-19T03:15:48;99440.19;;;25.78;49.26
68107;BME280;54892;47.488;19.026;2022-08-19T03:18:51;99436.31;;;25.75;49.29
68107;BME280;54892;47.488;19.026;2022-08-19T03:21:56;99446.50;;;25.93;48.99
68107;BME280;54892;47.488;19.026;2022-08-19T03:24:58;99454.13;;;25.80;49.29
68107;BME280;54892;47.488;19.026;2022-08-19T03:28:03;99448.69;;;25.76;49.28
68107;BME280;54892;47.488;19.026;2022-08-19T03:31:08;99450.63;;;25.79;49.30
68107;BME280;54892;47.488;19.026;2022-08-19T03:34:12;99444.03;;;25.73;49.45
68107;BME280;54892;47.488;19.026;2022-08-19T03:37:15;99451.41;;;25.80;49.32
68107;BME280;54892;47.488;19.026;2022-08-19T03:40:19;99453.28;;;25.72;49.51
68107;BME280;54892;47.488;19.026;2022-08-19T03:43:23;99459.84;;;25.71;49.58
68107;BME280;54892;47.488;19.026;2022-08-19T03:46:27;99456.31;;;25.67;49.64
68107;BME280;54892;47.488;19.026;2022-08-19T03:49:31;99458.28;;;25.70;49.65
68107;BME280;54892;47.488;19.026;2022-08-19T03:52:34;99472.56;;;25.71;49.69
68107;BME280;54892;47.488;19.026;2022-08-19T03:55:39;99459.34;;;25.62;49.88
68107;BME280;54892;47.488;19.026;2022-08-19T03:58:43;99470.84;;;25.55;50.27
68107;BME280;54892;47.488;19.026;2022-08-19T04:01:46;99477.66;;;25.42;50.34
68107;BME280;54892;47.488;19.026;2022-08-19T04:04:49;99466.91;;;25.45;50.42
68107;BME280;54892;47.488;19.026;2022-08-19T04:07:55;99464.16;;;25.42;50.25
68107;BME280;54892;47.488;19.026;2022-08-19T04:11:01;99471.91;;;25.43;50.38
68107;BME280;54892;47.488;19.026;2022-08-19T04:14:05;99475.28;;;25.36;50.41
68107;BME280;54892;47.488;19.026;2022-08-19T04:17:08;99472.44;;;25.26;50.81
68107;BME280;54892;47.488;19.026;2022-08-19T04:20:12;99490.63;;;25.29;50.70
68107;BME280;54892;47.488;19.026;2022-08-19T04:23:15;99494.22;;;25.40;50.34
68107;BME280;54892;47.488;19.026;2022-08-19T04:26:19;99493.06;;;25.41;50.20
68107;BME280;54892;47.488;19.026;2022-08-19T04:29:24;99488.09;;;25.43;50.16
68107;BME280;54892;47.488;19.026;2022-08-19T04:32:28;99479.88;;;25.36;50.41
68107;BME280;54892;47.488;19.026;2022-08-19T04:35:37;99490.34;;;25.37;50.46
68107;BME280;54892;47.488;19.026;2022-08-19T04:38:41;99496.88;;;25.36;50.33
68107;BME280;54892;47.488;19.026;2022-08-19T04:41:44;99501.88;;;25.34;50.50
68107;BME280;54892;47.488;19.026;2022-08-19T04:45:07;99501.53;;;25.39;50.21
68107;BME280;54892;47.488;19.026;2022-08-19T04:48:12;99508.97;;;25.46;50.04
68107;BME280;54892;47.488;19.026;2022-08-19T04:51:15;99493.53;;;25.47;50.13
68107;BME280;54892;47.488;19.026;2022-08-19T04:54:18;99489.28;;;25.46;50.17
68107;BME280;54892;47.488;19.026;2022-08-19T04:57:24;99495.34;;;25.39;50.51
68107;BME280;54892;47.488;19.026;2022-08-19T05:00:28;99489.91;;;25.35;50.55
68107;BME280;54892;47.488;19.026;2022-08-19T05:03:32;99500.34;;;25.37;50.64
68107;BME280;54892;47.488;19.026;2022-08-19T05:06:35;99507.44;;;25.45;50.41
68107;BME280;54892;47.488;19.026;2022-08-19T05:09:39;99510.22;;;25.56;50.13
68107;BME280;54892;47.488;19.026;2022-08-19T05:12:41;99504.53;;;25.65;49.97
68107;BME280;54892;47.488;19.026;2022-08-19T05:15:46;99502.25;;;25.67;49.78
68107;BME280;54892;47.488;19.026;2022-08-19T05:18:55;99506.13;;;25.69;49.79
68107;BME280;54892;47.488;19.026;2022-08-19T05:22:16;99507.59;;;25.97;49.22
68107;BME280;54892;47.488;19.026;2022-08-19T05:25:38;99500.53;;;25.89;49.56
68107;BME280;54892;47.488;19.026;2022-08-19T05:28:42;99493.13;;;25.79;49.53
68107;BME280;54892;47.488;19.026;2022-08-19T05:31:47;99501.28;;;25.86;49.10
68107;BME280;54892;47.488;19.026;2022-08-19T05:34:51;99498.97;;;25.88;49.18
68107;BME280;54892;47.488;19.026;2022-08-19T05:37:54;99506.03;;;25.96;49.06
68107;BME280;54892;47.488;19.026;2022-08-19T05:40:57;99512.59;;;25.95;48.84
68107;BME280;54892;47.488;19.026;2022-08-19T05:44:02;99504.47;;;25.95;48.55
68107;BME280;54892;47.488;19.026;2022-08-19T05:47:09;99519.19;;;26.02;48.46
68107;BME280;54892;47.488;19.026;2022-08-19T05:50:12;99504.31;;;26.15;48.13
68107;BME280;54892;47.488;19.026;2022-08-19T05:53:15;99503.94;;;26.20;48.09
68107;BME280;54892;47.488;19.026;2022-08-19T05:56:18;99505.56;;;26.28;47.87
68107;BME280;54892;47.488;19.026;2022-08-19T05:59:22;99497.13;;;26.37;47.70
68107;BME280;54892;47.488;19.026;2022-08-19T06:02:26;99505.56;;;26.28;47.77
68107;BME280;54892;47.488;19.026;2022-08-19T06:05:30;99507.56;;;26.39;47.58
68107;BME280;54892;47.488;19.026;2022-08-19T06:08:33;99515.81;;;26.53;47.07
68107;BME280;54892;47.488;19.026;2022-08-19T06:11:37;99506.09;;;26.45;47.19
68107;BME280;54892;47.488;19.026;2022-08-19T06:14:40;99505.78;;;26.57;47.14
68107;BME280;54892;47.488;19.026;2022-08-19T06:17:45;99505.41;;;26.59;46.87
68107;BME280;54892;47.488;19.026;2022-08-19T06:20:48;99512.06;;;26.72;46.88
68107;BME280;54892;47.488;19.026;2022-08-19T06:23:58;99515.91;;;26.68;46.86
68107;BME280;54892;47.488;19.026;2022-08-19T06:27:02;99510.16;;;26.77;46.87
68107;BME280;54892;47.488;19.026;2022-08-19T06:30:07;99512.16;;;26.87;46.76
68107;BME280;54892;47.488;19.026;2022-08-19T06:33:13;99494.41;;;26.86;46.77
68107;BME280;54892;47.488;19.026;2022-08-19T06:36:17;99500.97;;;26.88;46.82
68107;BME280;54892;47.488;19.026;2022-08-19T06:39:22;99483.56;;;26.89;46.78
68107;BME280;54892;47.488;19.026;2022-08-19T06:42:26;99490.97;;;27.00;46.64
68107;BME280;54892;47.488;19.026;2022-08-19T06:45:29;99493.75;;;27.18;46.48
68107;BME280;54892;47.488;19.026;2022-08-19T06:48:34;99490.69;;;27.23;46.18
68107;BME280;54892;47.488;19.026;2022-08-19T06:51:40;99487.22;;;27.30;46.00
68107;BME280;54892;47.488;19.026;2022-08-19T06:54:43;99484.91;;;27.28;46.28
68107;BME280;54892;47.488;19.026;2022-08-19T06:57:47;99492.28;;;27.31;46.01
68107;BME280;54892;47.488;19.026;2022-08-19T07:00:54;99493.84;;;27.32;46.22
68107;BME280;54892;47.488;19.026;2022-08-19T07:04:00;99502.41;;;27.45;46.04
68107;BME280;54892;47.488;19.026;2022-08-19T07:07:04;99508.63;;;27.57;45.61
68107;BME280;54892;47.488;19.026;2022-08-19T07:10:09;99512.94;;;27.72;45.49
68107;BME280;54892;47.488;19.026;2022-08-19T07:13:12;99518.41;;;27.94;44.85
68107;BME280;54892;47.488;19.026;2022-08-19T07:16:15;99528.13;;;28.13;44.58
68107;BME280;54892;47.488;19.026;2022-08-19T07:19:21;99534.75;;;28.48;43.62
68107;BME280;54892;47.488;19.026;2022-08-19T07:22:24;99527.31;;;29.07;41.97
68107;BME280;54892;47.488;19.026;2022-08-19T07:25:27;99527.72;;;29.87;40.42
68107;BME280;54892;47.488;19.026;2022-08-19T07:28:31;99524.94;;;30.50;38.84
68107;BME280;54892;47.488;19.026;2022-08-19T07:31:34;99529.50;;;31.03;37.49
68107;BME280;54892;47.488;19.026;2022-08-19T07:34:39;99534.75;;;31.52;36.62
68107;BME280;54892;47.488;19.026;2022-08-19T07:37:43;99532.16;;;31.99;35.70
68107;BME280;54892;47.488;19.026;2022-08-19T07:40:46;99531.88;;;32.17;34.94
68107;BME280;54892;47.488;19.026;2022-08-19T07:43:50;99522.56;;;32.62;34.26
68107;BME280;54892;47.488;19.026;2022-08-19T07:46:53;99519.47;;;32.84;34.24
68107;BME280;54892;47.488;19.026;2022-08-19T07:49:58;99527.59;;;33.08;33.06
68107;BME280;54892;47.488;19.026;2022-08-19T07:53:01;99515.44;;;33.29;32.92
68107;BME280;54892;47.488;19.026;2022-08-19T07:56:05;99513.16;;;33.64;32.37
68107;BME280;54892;47.488;19.026;2022-08-19T07:59:08;99524.81;;;33.48;32.29
68107;BME280;54892;47.488;19.026;2022-08-19T08:02:13;99523.31;;;33.64;32.30
68107;BME280;54892;47.488;19.026;2022-08-19T08:05:18;99526.56;;;33.59;32.04
68107;BME280;54892;47.488;19.026;2022-08-19T08:08:41;99524.03;;;33.84;31.97
68107;BME280;54892;47.488;19.026;2022-08-19T08:12:02;99516.03;;;33.94;31.90
68107;BME280;54892;47.488;19.026;2022-08-19T08:15:18;99527.41;;;33.55;31.88
68107;BME280;54892;47.488;19.026;2022-08-19T08:18:21;99520.91;;;33.29;31.23
68107;BME280;54892;47.488;19.026;2022-08-19T08:21:26;99525.50;;;32.95;32.17
68107;BME280;54892;47.488;19.026;2022-08-19T08:24:30;99523.75;;;32.85;32.38
68107;BME280;54892;47.488;19.026;2022-08-19T08:27:35;99522.78;;;32.72;32.29
68107;BME280;54892;47.488;19.026;2022-08-19T08:30:38;99522.22;;;32.60;32.58
68107;BME280;54892;47.488;19.026;2022-08-19T08:33:43;99520.03;;;32.72;32.22
68107;BME280;54892;47.488;19.026;2022-08-19T08:36:47;99527.28;;;32.62;31.99
68107;BME280;54892;47.488;19.026;2022-08-19T08:39:52;99525.91;;;32.50;32.31
68107;BME280;54892;47.488;19.026;2022-08-19T08:42:57;99523.53;;;32.52;32.39
68107;BME280;54892;47.488;19.026;2022-08-19T08:46:04;99515.00;;;32.50;32.76
68107;BME280;54892;47.488;19.026;2022-08-19T08:49:13;99504.78;;;32.54;32.11
68107;BME280;54892;47.488;19.026;2022-08-19T08:52:22;99496.69;;;32.47;32.40
68107;BME280;54892;47.488;19.026;2022-08-19T08:55:27;99488.78;;;32.53;32.10
68107;BME280;54892;47.488;19.026;2022-08-19T08:58:32;99484.88;;;32.74;31.02
68107;BME280;54892;47.488;19.026;2022-08-19T09:01:43;99489.31;;;32.68;30.79
68107;BME280;54892;47.488;19.026;2022-08-19T09:04:46;99495.44;;;32.72;30.69
68107;BME280;54892;47.488;19.026;2022-08-19T09:07:52;99495.59;;;32.64;31.15
68107;BME280;54892;47.488;19.026;2022-08-19T09:10:57;99493.06;;;32.74;30.60
68107;BME280;54892;47.488;19.026;2022-08-19T09:14:02;99495.34;;;32.99;29.85
68107;BME280;54892;47.488;19.026;2022-08-19T09:17:16;99494.59;;;32.99;30.00
68107;BME280;54892;47.488;19.026;2022-08-19T09:20:21;99491.16;;;32.71;31.00
68107;BME280;54892;47.488;19.026;2022-08-19T09:23:26;99483.22;;;32.80;30.88
68107;BME280;54892;47.488;19.026;2022-08-19T09:26:29;99483.59;;;32.82;31.12
68107;BME280;54892;47.488;19.026;2022-08-19T09:29:33;99489.53;;;32.97;30.63
68107;BME280;54892;47.488;19.026;2022-08-19T09:32:36;99474.75;;;32.94;30.68
68107;BME280;54892;47.488;19.026;2022-08-19T09:35:40;99474.94;;;33.04;30.57
68107;BME280;54892;47.488;19.026;2022-08-19T09:38:45;99478.66;;;33.14;30.34
68107;BME280;54892;47.488;19.026;2022-08-19T09:41:48;99460.28;;;33.14;30.44
68107;BME280;54892;47.488;19.026;2022-08-19T09:44:52;99468.41;;;33.18;30.62
68107;BME280;54892;47.488;19.026;2022-08-19T09:47:55;99458.56;;;33.40;29.87
68107;BME280;54892;47.488;19.026;2022-08-19T09:51:02;99464.47;;;33.39;29.92
68107;BME280;54892;47.488;19.026;2022-08-19T09:54:07;99459.25;;;33.61;29.31
68107;BME280;54892;47.488;19.026;2022-08-19T09:57:10;99453.09;;;33.57;29.36
68107;BME280;54892;47.488;19.026;2022-08-19T10:00:13;99445.44;;;33.68;28.72
68107;BME280;54892;47.488;19.026;2022-08-19T10:03:17;99446.44;;;33.58;29.12
68107;BME280;54892;47.488;19.026;2022-08-19T10:06:21;99442.00;;;33.64;29.00
68107;BME280;54892;47.488;19.026;2022-08-19T10:09:26;99435.25;;;33.69;29.12
68107;BME280;54892;47.488;19.026;2022-08-19T10:12:29;99446.97;;;33.86;28.17
68107;BME280;54892;47.488;19.026;2022-08-19T10:15:32;99435.75;;;33.97;27.80
68107;BME280;54892;47.488;19.026;2022-08-19T10:18:37;99445.59;;;33.94;27.71
68107;BME280;54892;47.488;19.026;2022-08-19T10:21:40;99426.34;;;33.98;28.13
68107;BME280;54892;47.488;19.026;2022-08-19T10:24:45;99433.69;;;34.01;28.05
68107;BME280;54892;47.488;19.026;2022-08-19T10:27:48;99423.56;;;34.14;27.70
68107;BME280;54892;47.488;19.026;2022-08-19T10:30:51;99425.12;;;34.15;27.57
68107;BME280;54892;47.488;19.026;2022-08-19T10:33:54;99418.94;;;34.11;28.09
68107;BME280;54892;47.488;19.026;2022-08-19T10:37:00;99433.94;;;34.07;28.19
68107;BME280;54892;47.488;19.026;2022-08-19T10:40:05;99428.91;;;34.05;28.22
68107;BME280;54892;47.488;19.026;2022-08-19T10:43:09;99422.37;;;34.15;28.00
68107;BME280;54892;47.488;19.026;2022-08-19T10:46:13;99428.81;;;34.09;28.42
68107;BME280;54892;47.488;19.026;2022-08-19T10:49:17;99421.84;;;34.21;28.08
68107;BME280;54892;47.488;19.026;2022-08-19T10:52:21;99416.50;;;34.30;27.94
68107;BME280;54892;47.488;19.026;2022-08-19T10:55:36;99416.84;;;34.32;28.03
68107;BME280;54892;47.488;19.026;2022-08-19T10:58:57;99423.16;;;34.45;27.75
68107;BME280;54892;47.488;19.026;2022-08-19T11:02:02;99424.47;;;34.70;27.43
68107;BME280;54892;47.488;19.026;2022-08-19T11:05:06;99430.00;;;34.67;27.37
68107;BME280;54892;47.488;19.026;2022-08-19T11:08:12;99422.47;;;34.71;27.33
68107;BME280;54892;47.488;19.026;2022-08-19T11:11:16;99414.91;;;34.75;26.31
68107;BME280;54892;47.488;19.026;2022-08-19T11:14:20;99406.69;;;34.75;26.68
68107;BME280;54892;47.488;19.026;2022-08-19T11:17:23;99414.87;;;34.49;26.83
68107;BME280;54892;47.488;19.026;2022-08-19T11:20:27;99421.59;;;34.74;26.78
68107;BME280;54892;47.488;19.026;2022-08-19T11:23:30;99419.03;;;34.96;26.49
68107;BME280;54892;47.488;19.026;2022-08-19T11:26:35;99423.22;;;35.14;26.18
68107;BME280;54892;47.488;19.026;2022-08-19T11:29:38;99412.66;;;35.25;25.51
68107;BME280;54892;47.488;19.026;2022-08-19T11:32:42;99409.84;;;35.16;26.01
68107;BME280;54892;47.488;19.026;2022-08-19T11:35:49;99407.97;;;35.26;25.54
68107;BME280;54892;47.488;19.026;2022-08-19T11:38:52;99412.78;;;35.21;25.40
68107;BME280;54892;47.488;19.026;2022-08-19T11:41:56;99418.16;;;35.25;25.45
68107;BME280;54892;47.488;19.026;2022-08-19T11:45:00;99405.09;;;35.16;25.32
68107;BME280;54892;47.488;19.026;2022-08-19T11:48:04;99409.06;;;35.28;25.55
68107;BME280;54892;47.488;19.026;2022-08-19T11:51:08;99407.63;;;35.49;25.17
68107;BME280;54892;47.488;19.026;2022-08-19T11:54:12;99396.31;;;35.47;25.71
68107;BME280;54892;47.488;19.026;2022-08-19T11:57:17;99401.47;;;35.58;24.88
68107;BME280;54892;47.488;19.026;2022-08-19T12:00:21;99385.13;;;35.55;24.83
68107;BME280;54892;47.488;19.026;2022-08-19T12:03:24;99392.25;;;35.52;25.30
68107;BME280;54892;47.488;19.026;2022-08-19T12:06:28;99387.53;;;35.65;24.62
68107;BME280;54892;47.488;19.026;2022-08-19T12:09:31;99375.34;;;35.54;25.33
68107;BME280;54892;47.488;19.026;2022-08-19T12:12:37;99387.62;;;35.62;24.49
68107;BME280;54892;47.488;19.026;2022-08-19T12:15:45;99392.34;;;35.61;24.01
68107;BME280;54892;47.488;19.026;2022-08-19T12:18:48;99388.31;;;35.40;24.50
68107;BME280;54892;47.488;19.026;2022-08-19T12:21:52;99395.66;;;35.30;25.02
68107;BME280;54892;47.488;19.026;2022-08-19T12:24:57;99391.81;;;35.41;24.25
68107;BME280;54892;47.488;19.026;2022-08-19T12:28:02;99386.03;;;35.26;25.09
68107;BME280;54892;47.488;19.026;2022-08-19T12:31:05;99390.38;;;35.23;25.24
68107;BME280;54892;47.488;19.026;2022-08-19T12:34:08;99387.88;;;35.16;25.38
68107;BME280;54892;47.488;19.026;2022-08-19T12:37:12;99390.84;;;35.21;25.38
68107;BME280;54892;47.488;19.026;2022-08-19T12:40:16;99391.50;;;35.13;25.54
68107;BME280;54892;47.488;19.026;2022-08-19T12:43:21;99381.53;;;35.19;25.11
68107;BME280;54892;47.488;19.026;2022-08-19T12:46:24;99370.19;;;35.30;24.99
68107;BME280;54892;47.488;19.026;2022-08-19T12:49:27;99369.91;;;35.15;25.18
68107;BME280;54892;47.488;19.026;2022-08-19T12:52:30;99362.97;;;35.23;24.94
68107;BME280;54892;47.488;19.026;2022-08-19T12:55:33;99356.69;;;35.35;24.62
68107;BME280;54892;47.488;19.026;2022-08-19T12:58:38;99347.81;;;35.31;24.98
68107;BME280;54892;47.488;19.026;2022-08-19T13:01:43;99352.06;;;35.58;24.49
68107;BME280;54892;47.488;19.026;2022-08-19T13:04:46;99355.00;;;35.64;24.67
68107;BME280;54892;47.488;19.026;2022-08-19T13:07:50;99359.22;;;35.43;25.21
68107;BME280;54892;47.488;19.026;2022-08-19T13:10:54;99353.84;;;35.26;25.15
68107;BME280;54892;47.488;19.026;2022-08-19T13:13:59;99354.97;;;35.16;25.46
68107;BME280;54892;47.488;19.026;2022-08-19T13:17:02;99342.53;;;35.37;25.31
68107;BME280;54892;47.488;19.026;2022-08-19T13:20:05;99344.03;;;35.64;24.70
68107;BME280;54892;47.488;19.026;2022-08-19T13:23:09;99345.44;;;35.69;24.71
68107;BME280;54892;47.488;19.026;2022-08-19T13:26:12;99342.28;;;35.57;24.84
68107;BME280;54892;47.488;19.026;2022-08-19T13:29:17;99339.25;;;35.77;23.73
68107;BME280;54892;47.488;19.026;2022-08-19T13:32:37;99339.06;;;35.72;24.08
68107;BME280;54892;47.488;19.026;2022-08-19T13:35:58;99332.38;;;35.73;24.28
68107;BME280;54892;47.488;19.026;2022-08-19T13:39:02;99335.47;;;35.62;24.55
68107;BME280;54892;47.488;19.026;2022-08-19T13:42:06;99325.69;;;35.61;24.58
68107;BME280;54892;47.488;19.026;2022-08-19T13:45:13;99334.09;;;35.44;24.76
68107;BME280;54892;47.488;19.026;2022-08-19T13:48:16;99331.22;;;35.35;24.97
68107;BME280;54892;47.488;19.026;2022-08-19T13:51:19;99323.56;;;35.30;24.99
68107;BME280;54892;47.488;19.026;2022-08-19T13:54:23;99311.03;;;35.55;24.32
68107;BME280;54892;47.488;19.026;2022-08-19T13:57:26;99316.50;;;35.42;25.15
68107;BME280;54892;47.488;19.026;2022-08-19T14:00:31;99325.47;;;35.68;25.78
68107;BME280;54892;47.488;19.026;2022-08-19T14:03:34;99337.81;;;35.37;28.10
68107;BME280;54892;47.488;19.026;2022-08-19T14:06:38;99351.19;;;34.58;30.15
68107;BME280;54892;47.488;19.026;2022-08-19T14:09:41;99325.00;;;34.14;31.40
68107;BME280;54892;47.488;19.026;2022-08-19T14:12:44;99326.62;;;33.66;32.51
68107;BME280;54892;47.488;19.026;2022-08-19T14:15:49;99331.16;;;33.56;32.79
68107;BME280;54892;47.488;19.026;2022-08-19T14:18:52;99328.44;;;33.23;33.00
68107;BME280;54892;47.488;19.026;2022-08-19T14:21:55;99323.94;;;33.16;32.85
68107;BME280;54892;47.488;19.026;2022-08-19T14:24:59;99323.63;;;32.94;33.20
68107;BME280;54892;47.488;19.026;2022-08-19T14:28:02;99334.16;;;32.95;33.51
68107;BME280;54892;47.488;19.026;2022-08-19T14:31:07;99319.62;;;32.99;33.51
68107;BME280;54892;47.488;19.026;2022-08-19T14:34:10;99331.00;;;32.77;33.63
68107;BME280;54892;47.488;19.026;2022-08-19T14:37:15;99307.50;;;32.83;33.18
68107;BME280;54892;47.488;19.026;2022-08-19T14:40:19;99316.66;;;32.73;33.17
68107;BME280;54892;47.488;19.026;2022-08-19T14:43:28;99321.75;;;32.54;32.97
68107;BME280;54892;47.488;19.026;2022-08-19T14:46:32;99321.34;;;32.36;32.84
68107;BME280;54892;47.488;19.026;2022-08-19T14:49:36;99320.75;;;32.24;32.80
68107;BME280;54892;47.488;19.026;2022-08-19T14:52:41;99321.66;;;32.17;32.40
68107;BME280;54892;47.488;19.026;2022-08-19T14:55:45;99336.28;;;32.07;32.14
68107;BME280;54892;47.488;19.026;2022-08-19T14:58:48;99352.59;;;32.11;31.26
68107;BME280;54892;47.488;19.026;2022-08-19T15:01:54;99350.38;;;32.06;29.48
68107;BME280;54892;47.488;19.026;2022-08-19T15:04:57;99349.09;;;31.90;29.37
68107;BME280;54892;47.488;19.026;2022-08-19T15:08:02;99362.47;;;31.81;29.18
68107;BME280;54892;47.488;19.026;2022-08-19T15:11:07;99374.88;;;31.85;28.98
68107;BME280;54892;47.488;19.026;2022-08-19T15:14:11;99373.41;;;31.81;28.55
68107;BME280;54892;47.488;19.026;2022-08-19T15:17:16;99387.53;;;31.76;28.33
68107;BME280;54892;47.488;19.026;2022-08-19T15:20:20;99376.19;;;31.77;28.55
68107;BME280;54892;47.488;19.026;2022-08-19T15:23:24;99394.88;;;31.79;28.42
68107;BME280;54892;47.488;19.026;2022-08-19T15:26:28;99390.19;;;31.79;28.55
68107;BME280;54892;47.488;19.026;2022-08-19T15:29:34;99399.66;;;31.71;28.72
68107;BME280;54892;47.488;19.026;2022-08-19T15:32:38;99419.91;;;31.73;28.58
68107;BME280;54892;47.488;19.026;2022-08-19T15:35:41;99422.00;;;31.62;28.59
68107;BME280;54892;47.488;19.026;2022-08-19T15:38:45;99429.13;;;31.56;28.72
68107;BME280;54892;47.488;19.026;2022-08-19T15:41:48;99426.09;;;31.50;28.90
68107;BME280;54892;47.488;19.026;2022-08-19T15:44:51;99421.81;;;31.49;28.94
68107;BME280;54892;47.488;19.026;2022-08-19T15:47:55;99384.59;;;31.35;29.11
68107;BME280;54892;47.488;19.026;2022-08-19T15:50:58;99356.69;;;31.27;29.38
68107;BME280;54892;47.488;19.026;2022-08-19T15:54:01;99359.56;;;31.17;29.58
68107;BME280;54892;47.488;19.026;2022-08-19T15:57:05;99373.09;;;31.24;29.61
68107;BME280;54892;47.488;19.026;2022-08-19T16:00:26;99356.28;;;31.29;29.32
68107;BME280;54892;47.488;19.026;2022-08-19T16:03:48;99354.91;;;31.17;29.76
68107;BME280;54892;47.488;19.026;2022-08-19T16:07:09;99358.00;;;31.16;29.79